AQQ10 IFIS: Internet Flight Information System
logo dgac
Viernes 01 de Julio del 2022
Buscar por aerodromo o helipuerto
Ingrese nombre de aeródromo, localidad o designador OACI:
METAR del 01-07-2022 a las 14:00 UTC
Para mayor información visite www.meteochile.cl
METAR SCPD 011400Z 35005KT 310V030 6000 RA FEW040 OVC070 08/06 Q1017
Viento: dirección 350 grados, velocidad 5 nudos
Viento con dirección variable entre 310 y 030 grados
Visibilidad: 6000 metros
Lluvia
Nubes: Escasa nubosidad a 4000 pies sobre el nivel del aeródromo
Nubes: Cubierto a 7000 pies sobre el nivel del aeródromo
Temperatura: 8 °C
Rocío: 6 °C
Humedad_relativa: 87%
Presión: 1017 hPa
METAR del 01-07-2022 a las 13:00 UTC
Para mayor información visite www.meteochile.cl
METAR SCPD 011300Z 05006KT 360V090 6000 RA FEW040 OVC070 08/05 Q1016
Viento: dirección 050 grados, velocidad 6 nudos
Viento con dirección variable entre 360 y 090 grados
Visibilidad: 6000 metros
Lluvia
Nubes: Escasa nubosidad a 4000 pies sobre el nivel del aeródromo
Nubes: Cubierto a 7000 pies sobre el nivel del aeródromo
Temperatura: 8 °C
Rocío: 5 °C
Humedad_relativa: 81%
Presión: 1016 hPa
SPECI del 01-07-2022 a las 12:09 UTC
Para mayor información visite www.meteochile.cl
SPECI SCPD 011209Z AUTO 17007KT 150V210 //// ///////// 07/05 Q1015
Viento: dirección 170 grados, velocidad 7 nudos
Viento con dirección variable entre 150 y 210 grados
Temperatura: 7 °C
Rocío: 5 °C
Humedad_relativa: 87%
Presión: 1015 hPa
METAR del 01-07-2022 a las 12:00 UTC
Para mayor información visite www.meteochile.cl
METAR SCPD 011200Z AUTO 26019KT //// ///////// 10/04 Q1014
Viento: dirección 260 grados, velocidad 19 nudos
Temperatura: 10 °C
Rocío: 4 °C
Humedad_relativa: 66%
Presión: 1014 hPa
SPECI del 01-07-2022 a las 12:00 UTC
Para mayor información visite www.meteochile.cl
SPECI SCPD 011200Z AUTO 25016KT //// ///////// 08/04 Q1015
Viento: dirección 250 grados, velocidad 16 nudos
Temperatura: 8 °C
Rocío: 4 °C
Humedad_relativa: 76%
Presión: 1015 hPa
SPECI del 01-07-2022 a las 11:44 UTC
Para mayor información visite www.meteochile.cl
SPECI SCPD 011144Z AUTO 28021KT //// ///////// 12/01 Q1014
Viento: dirección 280 grados, velocidad 21 nudos
Temperatura: 12 °C
Rocío: 1 °C
Humedad_relativa: 47%
Presión: 1014 hPa
SPECI del 01-07-2022 a las 11:44 UTC
Para mayor información visite www.meteochile.cl
SPECI SCPD 011144Z AUTO 28021KT //// ///////// 12/01 Q1014
Viento: dirección 280 grados, velocidad 21 nudos
Temperatura: 12 °C
Rocío: 1 °C
Humedad_relativa: 47%
Presión: 1014 hPa
SPECI del 01-07-2022 a las 11:40 UTC
Para mayor información visite www.meteochile.cl
SPECI SCPD 011140Z AUTO 28019G30KT //// ///////// 12/01 Q1014
Viento: dirección 280 grados, velocidad 19 nudos, con ráfagas de velocidad máxima de 30Nudos
Temperatura: 12 °C
Rocío: 1 °C
Humedad_relativa: 47%
Presión: 1014 hPa
SPECI del 01-07-2022 a las 11:40 UTC
Para mayor información visite www.meteochile.cl
SPECI SCPD 011140Z AUTO 28019G30KT //// ///////// 12/01 Q1014
Viento: dirección 280 grados, velocidad 19 nudos, con ráfagas de velocidad máxima de 30Nudos
Temperatura: 12 °C
Rocío: 1 °C
Humedad_relativa: 47%
Presión: 1014 hPa
SPECI del 01-07-2022 a las 11:33 UTC
Para mayor información visite www.meteochile.cl
SPECI SCPD 011133Z AUTO 30015KT //// ///////// 12/00 Q1013
Viento: dirección 300 grados, velocidad 15 nudos
Temperatura: 12 °C
Rocío: 0 °C
Humedad_relativa: 44%
Presión: 1013 hPa